sensor_id;sensor_type;location;lat;lon;timestamp;temperature;humidity
4904;DHT22;2467;48.142;11.616;2023-12-20T00:00:18;7.70;57.90
4904;DHT22;2467;48.142;11.616;2023-12-20T00:00:50;7.70;58.00
4904;DHT22;2467;48.142;11.616;2023-12-20T00:01:23;7.70;58.10
4904;DHT22;2467;48.142;11.616;2023-12-20T00:01:56;7.70;58.20
4904;DHT22;2467;48.142;11.616;2023-12-20T00:02:28;7.70;58.20
4904;DHT22;2467;48.142;11.616;2023-12-20T00:03:00;7.70;58.30
4904;DHT22;2467;48.142;11.616;2023-12-20T00:03:34;7.70;58.30
4904;DHT22;2467;48.142;11.616;2023-12-20T00:04:13;7.70;58.40
4904;DHT22;2467;48.142;11.616;2023-12-20T00:04:45;7.70;58.50
4904;DHT22;2467;48.142;11.616;2023-12-20T00:05:18;7.70;58.60
4904;DHT22;2467;48.142;11.616;2023-12-20T00:05:51;7.70;58.70
4904;DHT22;2467;48.142;11.616;2023-12-20T00:06:23;7.70;59.30
4904;DHT22;2467;48.142;11.616;2023-12-20T00:06:55;7.70;58.70
4904;DHT22;2467;48.142;11.616;2023-12-20T00:07:27;7.70;58.80
4904;DHT22;2467;48.142;11.616;2023-12-20T00:08:01;7.70;58.80
4904;DHT22;2467;48.142;11.616;2023-12-20T00:08:33;7.70;59.00
4904;DHT22;2467;48.142;11.616;2023-12-20T00:09:05;7.70;59.00
4904;DHT22;2467;48.142;11.616;2023-12-20T00:09:37;7.70;59.10
4904;DHT22;2467;48.142;11.616;2023-12-20T00:10:10;7.70;59.10
4904;DHT22;2467;48.142;11.616;2023-12-20T00:10:44;7.80;59.30
4904;DHT22;2467;48.142;11.616;2023-12-20T00:11:16;7.70;59.20
4904;DHT22;2467;48.142;11.616;2023-12-20T00:11:48;7.70;59.30
4904;DHT22;2467;48.142;11.616;2023-12-20T00:12:21;7.70;59.40
4904;DHT22;2467;48.142;11.616;2023-12-20T00:12:53;7.70;59.40
4904;DHT22;2467;48.142;11.616;2023-12-20T00:13:25;7.70;59.50
4904;DHT22;2467;48.142;11.616;2023-12-20T00:13:57;7.70;59.50
4904;DHT22;2467;48.142;11.616;2023-12-20T00:14:30;7.70;59.50
4904;DHT22;2467;48.142;11.616;2023-12-20T00:15:03;7.70;59.60
4904;DHT22;2467;48.142;11.616;2023-12-20T00:15:35;7.70;59.70
4904;DHT22;2467;48.142;11.616;2023-12-20T00:16:07;7.70;59.70
4904;DHT22;2467;48.142;11.616;2023-12-20T00:16:40;7.80;59.80
4904;DHT22;2467;48.142;11.616;2023-12-20T00:17:12;7.80;59.90
4904;DHT22;2467;48.142;11.616;2023-12-20T00:17:44;7.80;59.90
4904;DHT22;2467;48.142;11.616;2023-12-20T00:18:16;7.80;60.00
4904;DHT22;2467;48.142;11.616;2023-12-20T00:18:52;7.80;60.10
4904;DHT22;2467;48.142;11.616;2023-12-20T00:19:24;7.80;60.10
4904;DHT22;2467;48.142;11.616;2023-12-20T00:19:56;7.80;60.20
4904;DHT22;2467;48.142;11.616;2023-12-20T00:20:29;7.80;60.20
4904;DHT22;2467;48.142;11.616;2023-12-20T00:21:02;7.80;60.40
4904;DHT22;2467;48.142;11.616;2023-12-20T00:21:34;7.80;60.40
4904;DHT22;2467;48.142;11.616;2023-12-20T00:22:06;7.80;60.50
4904;DHT22;2467;48.142;11.616;2023-12-20T00:22:39;7.80;60.60
4904;DHT22;2467;48.142;11.616;2023-12-20T00:23:11;7.80;60.70
4904;DHT22;2467;48.142;11.616;2023-12-20T00:23:44;7.80;60.70
4904;DHT22;2467;48.142;11.616;2023-12-20T00:24:16;7.80;60.70
4904;DHT22;2467;48.142;11.616;2023-12-20T00:24:49;7.80;60.80
4904;DHT22;2467;48.142;11.616;2023-12-20T00:25:21;7.90;60.90
4904;DHT22;2467;48.142;11.616;2023-12-20T00:25:53;7.90;60.90
4904;DHT22;2467;48.142;11.616;2023-12-20T00:26:25;7.90;60.90
4904;DHT22;2467;48.142;11.616;2023-12-20T00:26:59;7.80;60.90
4904;DHT22;2467;48.142;11.616;2023-12-20T00:27:31;7.80;60.90
4904;DHT22;2467;48.142;11.616;2023-12-20T00:28:04;7.80;61.00
4904;DHT22;2467;48.142;11.616;2023-12-20T00:28:36;7.80;60.90
4904;DHT22;2467;48.142;11.616;2023-12-20T00:29:09;7.80;61.00
4904;DHT22;2467;48.142;11.616;2023-12-20T00:29:41;7.80;61.00
4904;DHT22;2467;48.142;11.616;2023-12-20T00:30:14;7.80;61.10
4904;DHT22;2467;48.142;11.616;2023-12-20T00:30:46;7.90;61.20
4904;DHT22;2467;48.142;11.616;2023-12-20T00:31:19;7.80;61.10
4904;DHT22;2467;48.142;11.616;2023-12-20T00:31:52;7.80;61.20
4904;DHT22;2467;48.142;11.616;2023-12-20T00:32:24;7.80;61.20
4904;DHT22;2467;48.142;11.616;2023-12-20T00:32:56;7.80;61.40
4904;DHT22;2467;48.142;11.616;2023-12-20T00:33:29;7.80;61.40
4904;DHT22;2467;48.142;11.616;2023-12-20T00:34:03;7.80;61.30
4904;DHT22;2467;48.142;11.616;2023-12-20T00:34:35;7.80;61.20
4904;DHT22;2467;48.142;11.616;2023-12-20T00:35:08;7.80;61.30
4904;DHT22;2467;48.142;11.616;2023-12-20T00:35:40;7.80;61.30
4904;DHT22;2467;48.142;11.616;2023-12-20T00:36:13;7.80;61.30
4904;DHT22;2467;48.142;11.616;2023-12-20T00:36:45;7.80;61.20
4904;DHT22;2467;48.142;11.616;2023-12-20T00:37:17;7.80;61.20
4904;DHT22;2467;48.142;11.616;2023-12-20T00:37:49;7.80;61.10
4904;DHT22;2467;48.142;11.616;2023-12-20T00:38:22;7.80;61.10
4904;DHT22;2467;48.142;11.616;2023-12-20T00:38:54;7.80;61.10
4904;DHT22;2467;48.142;11.616;2023-12-20T00:39:26;7.80;61.20
4904;DHT22;2467;48.142;11.616;2023-12-20T00:39:58;7.80;61.10
4904;DHT22;2467;48.142;11.616;2023-12-20T00:40:31;7.80;61.10
4904;DHT22;2467;48.142;11.616;2023-12-20T00:41:03;7.80;61.10
4904;DHT22;2467;48.142;11.616;2023-12-20T00:41:35;7.80;61.10
4904;DHT22;2467;48.142;11.616;2023-12-20T00:42:07;7.80;60.90
4904;DHT22;2467;48.142;11.616;2023-12-20T00:42:41;7.80;60.80
4904;DHT22;2467;48.142;11.616;2023-12-20T00:43:13;7.80;60.80
4904;DHT22;2467;48.142;11.616;2023-12-20T00:43:45;7.80;60.70
4904;DHT22;2467;48.142;11.616;2023-12-20T00:44:17;7.80;60.70
4904;DHT22;2467;48.142;11.616;2023-12-20T00:44:50;7.80;60.60
4904;DHT22;2467;48.142;11.616;2023-12-20T00:45:22;7.80;60.60
4904;DHT22;2467;48.142;11.616;2023-12-20T00:45:54;7.80;60.60
4904;DHT22;2467;48.142;11.616;2023-12-20T00:46:27;7.80;60.40
4904;DHT22;2467;48.142;11.616;2023-12-20T00:47:00;7.80;60.10
4904;DHT22;2467;48.142;11.616;2023-12-20T00:47:32;7.80;59.90
4904;DHT22;2467;48.142;11.616;2023-12-20T00:48:05;7.80;59.80
4904;DHT22;2467;48.142;11.616;2023-12-20T00:48:37;7.80;59.80
4904;DHT22;2467;48.142;11.616;2023-12-20T00:49:12;7.90;59.80
4904;DHT22;2467;48.142;11.616;2023-12-20T00:49:44;7.80;59.50
4904;DHT22;2467;48.142;11.616;2023-12-20T00:50:16;7.90;59.50
4904;DHT22;2467;48.142;11.616;2023-12-20T00:50:49;7.80;59.40
4904;DHT22;2467;48.142;11.616;2023-12-20T00:51:22;7.80;59.20
4904;DHT22;2467;48.142;11.616;2023-12-20T00:51:54;7.80;59.00
4904;DHT22;2467;48.142;11.616;2023-12-20T00:52:26;7.90;59.00
4904;DHT22;2467;48.142;11.616;2023-12-20T00:52:59;7.90;58.90
4904;DHT22;2467;48.142;11.616;2023-12-20T00:53:31;7.90;58.80
4904;DHT22;2467;48.142;11.616;2023-12-20T00:54:03;7.90;58.80
4904;DHT22;2467;48.142;11.616;2023-12-20T00:54:35;7.90;58.70
4904;DHT22;2467;48.142;11.616;2023-12-20T00:55:09;7.90;58.60
4904;DHT22;2467;48.142;11.616;2023-12-20T00:55:41;7.90;58.40
4904;DHT22;2467;48.142;11.616;2023-12-20T00:56:13;7.90;58.20
4904;DHT22;2467;48.142;11.616;2023-12-20T00:56:45;7.90;58.20
4904;DHT22;2467;48.142;11.616;2023-12-20T00:57:18;7.90;58.20
4904;DHT22;2467;48.142;11.616;2023-12-20T00:57:50;7.90;58.20
4904;DHT22;2467;48.142;11.616;2023-12-20T00:58:22;7.90;58.10
4904;DHT22;2467;48.142;11.616;2023-12-20T00:58:54;8.00;58.20
4904;DHT22;2467;48.142;11.616;2023-12-20T00:59:27;8.00;58.10
4904;DHT22;2467;48.142;11.616;2023-12-20T00:59:59;8.00;57.90
4904;DHT22;2467;48.142;11.616;2023-12-20T01:00:31;8.00;58.40
4904;DHT22;2467;48.142;11.616;2023-12-20T01:01:03;8.00;57.80
4904;DHT22;2467;48.142;11.616;2023-12-20T01:01:36;8.00;57.70
4904;DHT22;2467;48.142;11.616;2023-12-20T01:02:09;8.00;57.70
4904;DHT22;2467;48.142;11.616;2023-12-20T01:02:41;8.00;57.60
4904;DHT22;2467;48.142;11.616;2023-12-20T01:03:13;8.00;57.50
4904;DHT22;2467;48.142;11.616;2023-12-20T01:03:47;8.00;57.50
4904;DHT22;2467;48.142;11.616;2023-12-20T01:04:24;8.00;57.50
4904;DHT22;2467;48.142;11.616;2023-12-20T01:04:56;8.00;57.50
4904;DHT22;2467;48.142;11.616;2023-12-20T01:05:29;8.00;57.50
4904;DHT22;2467;48.142;11.616;2023-12-20T01:06:01;8.00;57.50
4904;DHT22;2467;48.142;11.616;2023-12-20T01:06:34;8.00;57.40
4904;DHT22;2467;48.142;11.616;2023-12-20T01:07:06;8.00;57.30
4904;DHT22;2467;48.142;11.616;2023-12-20T01:07:38;8.00;57.20
4904;DHT22;2467;48.142;11.616;2023-12-20T01:08:10;8.00;57.10
4904;DHT22;2467;48.142;11.616;2023-12-20T01:08:44;8.10;57.10
4904;DHT22;2467;48.142;11.616;2023-12-20T01:09:16;8.10;57.10
4904;DHT22;2467;48.142;11.616;2023-12-20T01:09:48;8.10;57.00
4904;DHT22;2467;48.142;11.616;2023-12-20T01:10:20;8.10;56.90
4904;DHT22;2467;48.142;11.616;2023-12-20T01:10:53;8.10;56.90
4904;DHT22;2467;48.142;11.616;2023-12-20T01:11:26;8.10;56.90
4904;DHT22;2467;48.142;11.616;2023-12-20T01:11:58;8.10;56.80
4904;DHT22;2467;48.142;11.616;2023-12-20T01:12:30;8.10;56.80
4904;DHT22;2467;48.142;11.616;2023-12-20T01:13:03;8.10;57.00
4904;DHT22;2467;48.142;11.616;2023-12-20T01:13:35;8.10;56.80
4904;DHT22;2467;48.142;11.616;2023-12-20T01:14:07;8.20;56.80
4904;DHT22;2467;48.142;11.616;2023-12-20T01:14:40;8.10;56.70
4904;DHT22;2467;48.142;11.616;2023-12-20T01:15:12;8.10;56.80
4904;DHT22;2467;48.142;11.616;2023-12-20T01:15:44;8.10;56.80
4904;DHT22;2467;48.142;11.616;2023-12-20T01:16:16;8.10;56.70
4904;DHT22;2467;48.142;11.616;2023-12-20T01:16:49;8.20;56.80
4904;DHT22;2467;48.142;11.616;2023-12-20T01:17:21;8.20;56.80
4904;DHT22;2467;48.142;11.616;2023-12-20T01:17:53;8.10;56.60
4904;DHT22;2467;48.142;11.616;2023-12-20T01:18:26;8.10;56.60
4904;DHT22;2467;48.142;11.616;2023-12-20T01:18:59;8.10;56.60
4904;DHT22;2467;48.142;11.616;2023-12-20T01:19:33;8.10;56.60
4904;DHT22;2467;48.142;11.616;2023-12-20T01:20:07;8.10;56.70
4904;DHT22;2467;48.142;11.616;2023-12-20T01:20:39;8.10;56.70
4904;DHT22;2467;48.142;11.616;2023-12-20T01:21:12;8.10;56.70
4904;DHT22;2467;48.142;11.616;2023-12-20T01:21:45;8.10;56.80
4904;DHT22;2467;48.142;11.616;2023-12-20T01:22:17;8.10;56.90
4904;DHT22;2467;48.142;11.616;2023-12-20T01:22:49;8.10;57.00
4904;DHT22;2467;48.142;11.616;2023-12-20T01:23:21;8.10;57.70
4904;DHT22;2467;48.142;11.616;2023-12-20T01:23:54;8.10;57.20
4904;DHT22;2467;48.142;11.616;2023-12-20T01:24:26;8.10;57.20
4904;DHT22;2467;48.142;11.616;2023-12-20T01:24:58;8.10;57.30
4904;DHT22;2467;48.142;11.616;2023-12-20T01:25:32;8.10;57.40
4904;DHT22;2467;48.142;11.616;2023-12-20T01:26:04;8.00;57.40
4904;DHT22;2467;48.142;11.616;2023-12-20T01:26:37;8.00;57.40
4904;DHT22;2467;48.142;11.616;2023-12-20T01:27:10;8.00;57.50
4904;DHT22;2467;48.142;11.616;2023-12-20T01:27:42;8.00;57.50
4904;DHT22;2467;48.142;11.616;2023-12-20T01:28:15;8.00;57.50
4904;DHT22;2467;48.142;11.616;2023-12-20T01:28:47;8.00;57.70
4904;DHT22;2467;48.142;11.616;2023-12-20T01:29:20;8.10;57.80
4904;DHT22;2467;48.142;11.616;2023-12-20T01:29:52;8.00;57.80
4904;DHT22;2467;48.142;11.616;2023-12-20T01:30:24;8.10;58.00
4904;DHT22;2467;48.142;11.616;2023-12-20T01:30:57;8.00;58.00
4904;DHT22;2467;48.142;11.616;2023-12-20T01:31:29;8.00;58.00
4904;DHT22;2467;48.142;11.616;2023-12-20T01:32:01;8.00;58.10
4904;DHT22;2467;48.142;11.616;2023-12-20T01:32:33;8.00;58.10
4904;DHT22;2467;48.142;11.616;2023-12-20T01:33:07;8.00;58.20
4904;DHT22;2467;48.142;11.616;2023-12-20T01:33:39;8.00;58.30
4904;DHT22;2467;48.142;11.616;2023-12-20T01:34:11;8.10;58.50
4904;DHT22;2467;48.142;11.616;2023-12-20T01:34:44;8.10;58.60
4904;DHT22;2467;48.142;11.616;2023-12-20T01:35:18;8.10;58.60
4904;DHT22;2467;48.142;11.616;2023-12-20T01:35:50;8.10;58.70
4904;DHT22;2467;48.142;11.616;2023-12-20T01:36:22;8.10;58.70
4904;DHT22;2467;48.142;11.616;2023-12-20T01:36:54;8.10;58.70
4904;DHT22;2467;48.142;11.616;2023-12-20T01:37:27;8.10;58.80
4904;DHT22;2467;48.142;11.616;2023-12-20T01:38:01;8.10;58.90
4904;DHT22;2467;48.142;11.616;2023-12-20T01:38:33;8.10;59.00
4904;DHT22;2467;48.142;11.616;2023-12-20T01:39:05;8.10;59.00
4904;DHT22;2467;48.142;11.616;2023-12-20T01:39:55;8.10;59.10
4904;DHT22;2467;48.142;11.616;2023-12-20T01:40:27;8.10;59.30
4904;DHT22;2467;48.142;11.616;2023-12-20T01:40:59;8.10;59.40
4904;DHT22;2467;48.142;11.616;2023-12-20T01:41:31;8.10;59.50
4904;DHT22;2467;48.142;11.616;2023-12-20T01:42:05;8.10;59.50
4904;DHT22;2467;48.142;11.616;2023-12-20T01:42:37;8.10;59.60
4904;DHT22;2467;48.142;11.616;2023-12-20T01:43:09;8.10;59.60
4904;DHT22;2467;48.142;11.616;2023-12-20T01:43:43;8.10;59.70
4904;DHT22;2467;48.142;11.616;2023-12-20T01:44:22;8.10;60.40
4904;DHT22;2467;48.142;11.616;2023-12-20T01:44:54;8.10;59.90
4904;DHT22;2467;48.142;11.616;2023-12-20T01:45:26;8.10;59.90
4904;DHT22;2467;48.142;11.616;2023-12-20T01:45:59;8.10;60.00
4904;DHT22;2467;48.142;11.616;2023-12-20T01:46:32;8.10;60.10
4904;DHT22;2467;48.142;11.616;2023-12-20T01:47:04;8.20;60.30
4904;DHT22;2467;48.142;11.616;2023-12-20T01:47:36;8.10;60.30
4904;DHT22;2467;48.142;11.616;2023-12-20T01:48:09;8.10;60.40
4904;DHT22;2467;48.142;11.616;2023-12-20T01:48:43;8.10;60.50
4904;DHT22;2467;48.142;11.616;2023-12-20T01:49:15;8.10;60.60
4904;DHT22;2467;48.142;11.616;2023-12-20T01:49:49;8.10;60.60
4904;DHT22;2467;48.142;11.616;2023-12-20T01:50:22;8.10;60.60
4904;DHT22;2467;48.142;11.616;2023-12-20T01:50:56;8.10;60.70
4904;DHT22;2467;48.142;11.616;2023-12-20T01:51:28;8.10;60.70
4904;DHT22;2467;48.142;11.616;2023-12-20T01:52:00;8.10;60.80
4904;DHT22;2467;48.142;11.616;2023-12-20T01:52:32;8.00;60.90
4904;DHT22;2467;48.142;11.616;2023-12-20T01:53:07;8.00;60.90
4904;DHT22;2467;48.142;11.616;2023-12-20T01:53:41;8.10;61.10
4904;DHT22;2467;48.142;11.616;2023-12-20T01:54:14;8.10;61.10
4904;DHT22;2467;48.142;11.616;2023-12-20T01:54:47;8.10;61.10
4904;DHT22;2467;48.142;11.616;2023-12-20T01:55:20;8.10;61.00
4904;DHT22;2467;48.142;11.616;2023-12-20T01:55:55;8.10;60.90
4904;DHT22;2467;48.142;11.616;2023-12-20T01:56:28;8.10;60.90
4904;DHT22;2467;48.142;11.616;2023-12-20T01:57:02;8.10;60.90
4904;DHT22;2467;48.142;11.616;2023-12-20T01:57:34;8.10;61.00
4904;DHT22;2467;48.142;11.616;2023-12-20T01:58:07;8.10;61.00
4904;DHT22;2467;48.142;11.616;2023-12-20T01:58:44;8.20;61.00
4904;DHT22;2467;48.142;11.616;2023-12-20T01:59:18;8.10;60.90
4904;DHT22;2467;48.142;11.616;2023-12-20T01:59:51;8.10;60.80
4904;DHT22;2467;48.142;11.616;2023-12-20T02:00:24;8.10;60.70
4904;DHT22;2467;48.142;11.616;2023-12-20T02:00:58;8.10;60.70
4904;DHT22;2467;48.142;11.616;2023-12-20T02:01:31;8.10;60.60
4904;DHT22;2467;48.142;11.616;2023-12-20T02:02:04;8.10;60.60
4904;DHT22;2467;48.142;11.616;2023-12-20T02:02:37;8.10;60.60
4904;DHT22;2467;48.142;11.616;2023-12-20T02:03:10;8.10;61.30
4904;DHT22;2467;48.142;11.616;2023-12-20T02:03:44;8.10;60.70
4904;DHT22;2467;48.142;11.616;2023-12-20T02:04:16;8.10;60.70
4904;DHT22;2467;48.142;11.616;2023-12-20T02:04:50;8.10;60.70
4904;DHT22;2467;48.142;11.616;2023-12-20T02:05:24;8.10;60.70
4904;DHT22;2467;48.142;11.616;2023-12-20T02:05:57;8.10;60.60
4904;DHT22;2467;48.142;11.616;2023-12-20T02:06:30;8.10;60.70
4904;DHT22;2467;48.142;11.616;2023-12-20T02:07:03;8.10;60.70
4904;DHT22;2467;48.142;11.616;2023-12-20T02:07:36;8.10;60.80
4904;DHT22;2467;48.142;11.616;2023-12-20T02:08:08;8.10;60.90
4904;DHT22;2467;48.142;11.616;2023-12-20T02:08:41;8.10;60.80
4904;DHT22;2467;48.142;11.616;2023-12-20T02:09:15;8.10;60.60
4904;DHT22;2467;48.142;11.616;2023-12-20T02:09:47;8.10;60.60
4904;DHT22;2467;48.142;11.616;2023-12-20T02:10:19;8.10;60.60
4904;DHT22;2467;48.142;11.616;2023-12-20T02:10:52;8.10;60.70
4904;DHT22;2467;48.142;11.616;2023-12-20T02:11:25;8.10;60.60
4904;DHT22;2467;48.142;11.616;2023-12-20T02:11:57;8.10;60.50
4904;DHT22;2467;48.142;11.616;2023-12-20T02:12:29;8.10;60.60
4904;DHT22;2467;48.142;11.616;2023-12-20T02:13:02;8.10;60.60
4904;DHT22;2467;48.142;11.616;2023-12-20T02:13:34;8.20;60.70
4904;DHT22;2467;48.142;11.616;2023-12-20T02:14:07;8.20;60.70
4904;DHT22;2467;48.142;11.616;2023-12-20T02:14:39;8.20;60.60
4904;DHT22;2467;48.142;11.616;2023-12-20T02:15:12;8.20;60.50
4904;DHT22;2467;48.142;11.616;2023-12-20T02:15:44;8.20;60.50
4904;DHT22;2467;48.142;11.616;2023-12-20T02:16:16;8.20;60.50
4904;DHT22;2467;48.142;11.616;2023-12-20T02:16:49;8.20;60.40
4904;DHT22;2467;48.142;11.616;2023-12-20T02:17:22;8.20;60.30
4904;DHT22;2467;48.142;11.616;2023-12-20T02:17:55;8.30;60.40
4904;DHT22;2467;48.142;11.616;2023-12-20T02:18:27;8.20;60.30
4904;DHT22;2467;48.142;11.616;2023-12-20T02:19:00;8.20;60.40
4904;DHT22;2467;48.142;11.616;2023-12-20T02:19:32;8.20;60.40
4904;DHT22;2467;48.142;11.616;2023-12-20T02:20:07;8.30;60.50
4904;DHT22;2467;48.142;11.616;2023-12-20T02:20:39;8.30;60.50
4904;DHT22;2467;48.142;11.616;2023-12-20T02:21:11;8.30;60.50
4904;DHT22;2467;48.142;11.616;2023-12-20T02:21:45;8.30;60.40
4904;DHT22;2467;48.142;11.616;2023-12-20T02:22:17;8.30;60.30
4904;DHT22;2467;48.142;11.616;2023-12-20T02:22:49;8.30;61.10
4904;DHT22;2467;48.142;11.616;2023-12-20T02:23:22;8.30;60.30
4904;DHT22;2467;48.142;11.616;2023-12-20T02:23:54;8.30;60.40
4904;DHT22;2467;48.142;11.616;2023-12-20T02:24:26;8.30;60.40
4904;DHT22;2467;48.142;11.616;2023-12-20T02:24:58;8.30;60.50
4904;DHT22;2467;48.142;11.616;2023-12-20T02:25:31;8.30;60.50
4904;DHT22;2467;48.142;11.616;2023-12-20T02:26:04;8.30;60.50
4904;DHT22;2467;48.142;11.616;2023-12-20T02:26:38;8.30;60.60
4904;DHT22;2467;48.142;11.616;2023-12-20T02:27:15;8.30;60.60
4904;DHT22;2467;48.142;11.616;2023-12-20T02:27:49;8.30;60.70
4904;DHT22;2467;48.142;11.616;2023-12-20T02:28:22;8.40;60.80
4904;DHT22;2467;48.142;11.616;2023-12-20T02:28:55;8.30;60.70
4904;DHT22;2467;48.142;11.616;2023-12-20T02:29:27;8.30;60.70
4904;DHT22;2467;48.142;11.616;2023-12-20T02:30:00;8.30;60.80
4904;DHT22;2467;48.142;11.616;2023-12-20T02:30:32;8.40;60.90
4904;DHT22;2467;48.142;11.616;2023-12-20T02:31:05;8.30;60.80
4904;DHT22;2467;48.142;11.616;2023-12-20T02:31:37;8.40;61.60
4904;DHT22;2467;48.142;11.616;2023-12-20T02:32:09;8.30;60.80
4904;DHT22;2467;48.142;11.616;2023-12-20T02:32:41;8.30;60.90
4904;DHT22;2467;48.142;11.616;2023-12-20T02:33:15;8.30;61.10
4904;DHT22;2467;48.142;11.616;2023-12-20T02:33:47;8.40;61.10
4904;DHT22;2467;48.142;11.616;2023-12-20T02:34:19;8.30;61.10
4904;DHT22;2467;48.142;11.616;2023-12-20T02:34:52;8.30;61.20
4904;DHT22;2467;48.142;11.616;2023-12-20T02:35:24;8.30;62.10
4904;DHT22;2467;48.142;11.616;2023-12-20T02:35:57;8.40;61.50
4904;DHT22;2467;48.142;11.616;2023-12-20T02:36:29;8.40;61.50
4904;DHT22;2467;48.142;11.616;2023-12-20T02:37:03;8.40;61.60
4904;DHT22;2467;48.142;11.616;2023-12-20T02:37:35;8.40;61.60
4904;DHT22;2467;48.142;11.616;2023-12-20T02:38:08;8.40;61.70
4904;DHT22;2467;48.142;11.616;2023-12-20T02:38:40;8.40;61.70
4904;DHT22;2467;48.142;11.616;2023-12-20T02:39:12;8.40;61.70
4904;DHT22;2467;48.142;11.616;2023-12-20T02:39:44;8.40;61.80
4904;DHT22;2467;48.142;11.616;2023-12-20T02:40:16;8.40;62.00
4904;DHT22;2467;48.142;11.616;2023-12-20T02:40:50;8.40;62.00
4904;DHT22;2467;48.142;11.616;2023-12-20T02:41:22;8.40;62.00
4904;DHT22;2467;48.142;11.616;2023-12-20T02:41:54;8.40;62.10
4904;DHT22;2467;48.142;11.616;2023-12-20T02:42:26;8.40;62.30
4904;DHT22;2467;48.142;11.616;2023-12-20T02:42:59;8.50;62.40
4904;DHT22;2467;48.142;11.616;2023-12-20T02:43:31;8.40;62.40
4904;DHT22;2467;48.142;11.616;2023-12-20T02:44:03;8.40;62.50
4904;DHT22;2467;48.142;11.616;2023-12-20T02:44:35;8.40;62.70
4904;DHT22;2467;48.142;11.616;2023-12-20T02:45:09;8.40;63.40
4904;DHT22;2467;48.142;11.616;2023-12-20T02:45:41;8.50;63.00
4904;DHT22;2467;48.142;11.616;2023-12-20T02:46:15;8.40;63.00
4904;DHT22;2467;48.142;11.616;2023-12-20T02:46:48;8.40;63.00
4904;DHT22;2467;48.142;11.616;2023-12-20T02:47:21;8.40;63.10
4904;DHT22;2467;48.142;11.616;2023-12-20T02:47:53;8.40;63.20
4904;DHT22;2467;48.142;11.616;2023-12-20T02:48:25;8.40;64.00
4904;DHT22;2467;48.142;11.616;2023-12-20T02:48:58;8.40;63.40
4904;DHT22;2467;48.142;11.616;2023-12-20T02:49:31;8.40;63.40
4904;DHT22;2467;48.142;11.616;2023-12-20T02:50:03;8.40;63.50
4904;DHT22;2467;48.142;11.616;2023-12-20T02:50:36;8.40;63.60
4904;DHT22;2467;48.142;11.616;2023-12-20T02:51:08;8.40;63.70
4904;DHT22;2467;48.142;11.616;2023-12-20T02:51:40;8.50;63.90
4904;DHT22;2467;48.142;11.616;2023-12-20T02:52:14;8.50;64.00
4904;DHT22;2467;48.142;11.616;2023-12-20T02:52:47;8.50;64.00
4904;DHT22;2467;48.142;11.616;2023-12-20T02:53:19;8.40;64.70
4904;DHT22;2467;48.142;11.616;2023-12-20T02:53:51;8.50;64.20
4904;DHT22;2467;48.142;11.616;2023-12-20T02:54:23;8.50;64.20
4904;DHT22;2467;48.142;11.616;2023-12-20T02:54:55;8.50;64.30
4904;DHT22;2467;48.142;11.616;2023-12-20T02:55:28;8.50;64.30
4904;DHT22;2467;48.142;11.616;2023-12-20T02:56:01;8.50;64.50
4904;DHT22;2467;48.142;11.616;2023-12-20T02:56:33;8.50;64.50
4904;DHT22;2467;48.142;11.616;2023-12-20T02:57:05;8.50;64.60
4904;DHT22;2467;48.142;11.616;2023-12-20T02:57:38;8.50;64.60
4904;DHT22;2467;48.142;11.616;2023-12-20T02:58:13;8.50;64.80
4904;DHT22;2467;48.142;11.616;2023-12-20T02:58:45;8.50;64.90
4904;DHT22;2467;48.142;11.616;2023-12-20T02:59:17;8.50;65.00
4904;DHT22;2467;48.142;11.616;2023-12-20T02:59:50;8.50;65.10
4904;DHT22;2467;48.142;11.616;2023-12-20T03:00:22;8.50;65.20
4904;DHT22;2467;48.142;11.616;2023-12-20T03:00:54;8.50;65.20
4904;DHT22;2467;48.142;11.616;2023-12-20T03:01:28;8.50;65.20
4904;DHT22;2467;48.142;11.616;2023-12-20T03:02:01;8.50;66.00
4904;DHT22;2467;48.142;11.616;2023-12-20T03:02:33;8.60;65.40
4904;DHT22;2467;48.142;11.616;2023-12-20T03:03:05;8.50;65.30
4904;DHT22;2467;48.142;11.616;2023-12-20T03:03:38;8.50;65.40
4904;DHT22;2467;48.142;11.616;2023-12-20T03:04:10;8.50;65.50
4904;DHT22;2467;48.142;11.616;2023-12-20T03:04:43;8.50;65.60
4904;DHT22;2467;48.142;11.616;2023-12-20T03:05:15;8.50;66.40
4904;DHT22;2467;48.142;11.616;2023-12-20T03:05:48;8.50;65.90
4904;DHT22;2467;48.142;11.616;2023-12-20T03:06:20;8.50;66.10
4904;DHT22;2467;48.142;11.616;2023-12-20T03:06:52;8.50;66.20
4904;DHT22;2467;48.142;11.616;2023-12-20T03:07:26;8.50;66.30
4904;DHT22;2467;48.142;11.616;2023-12-20T03:08:00;8.50;67.30
4904;DHT22;2467;48.142;11.616;2023-12-20T03:08:32;8.50;66.70
4904;DHT22;2467;48.142;11.616;2023-12-20T03:09:04;8.50;66.90
4904;DHT22;2467;48.142;11.616;2023-12-20T03:09:36;8.50;67.00
4904;DHT22;2467;48.142;11.616;2023-12-20T03:10:29;8.50;67.10
4904;DHT22;2467;48.142;11.616;2023-12-20T03:11:01;8.40;67.30
4904;DHT22;2467;48.142;11.616;2023-12-20T03:11:33;8.40;67.50
4904;DHT22;2467;48.142;11.616;2023-12-20T03:12:06;8.40;67.60
4904;DHT22;2467;48.142;11.616;2023-12-20T03:12:38;8.40;67.70
4904;DHT22;2467;48.142;11.616;2023-12-20T03:13:11;8.50;68.00
4904;DHT22;2467;48.142;11.616;2023-12-20T03:13:43;8.50;68.20
4904;DHT22;2467;48.142;11.616;2023-12-20T03:14:16;8.50;68.30
4904;DHT22;2467;48.142;11.616;2023-12-20T03:14:49;8.50;68.40
4904;DHT22;2467;48.142;11.616;2023-12-20T03:15:21;8.50;68.70
4904;DHT22;2467;48.142;11.616;2023-12-20T03:15:53;8.40;68.70
4904;DHT22;2467;48.142;11.616;2023-12-20T03:16:26;8.40;68.90
4904;DHT22;2467;48.142;11.616;2023-12-20T03:16:58;8.50;69.10
4904;DHT22;2467;48.142;11.616;2023-12-20T03:17:31;8.50;69.20
4904;DHT22;2467;48.142;11.616;2023-12-20T03:18:04;8.50;69.40
4904;DHT22;2467;48.142;11.616;2023-12-20T03:18:36;8.50;69.60
4904;DHT22;2467;48.142;11.616;2023-12-20T03:19:09;8.50;69.70
4904;DHT22;2467;48.142;11.616;2023-12-20T03:19:41;8.50;69.90
4904;DHT22;2467;48.142;11.616;2023-12-20T03:20:13;8.50;70.00
4904;DHT22;2467;48.142;11.616;2023-12-20T03:20:45;8.50;70.10
4904;DHT22;2467;48.142;11.616;2023-12-20T03:21:20;8.50;70.30
4904;DHT22;2467;48.142;11.616;2023-12-20T03:21:52;8.50;70.50
4904;DHT22;2467;48.142;11.616;2023-12-20T03:22:26;8.50;70.80
4904;DHT22;2467;48.142;11.616;2023-12-20T03:22:58;8.50;71.00
4904;DHT22;2467;48.142;11.616;2023-12-20T03:23:32;8.50;71.10
4904;DHT22;2467;48.142;11.616;2023-12-20T03:24:05;8.50;71.40
4904;DHT22;2467;48.142;11.616;2023-12-20T03:24:37;8.50;71.50
4904;DHT22;2467;48.142;11.616;2023-12-20T03:25:09;8.50;71.60
4904;DHT22;2467;48.142;11.616;2023-12-20T03:25:41;8.50;71.80
4904;DHT22;2467;48.142;11.616;2023-12-20T03:26:14;8.50;72.10
4904;DHT22;2467;48.142;11.616;2023-12-20T03:26:46;8.50;72.40
4904;DHT22;2467;48.142;11.616;2023-12-20T03:27:18;8.50;72.70
4904;DHT22;2467;48.142;11.616;2023-12-20T03:27:50;8.50;72.90
4904;DHT22;2467;48.142;11.616;2023-12-20T03:28:22;8.50;73.30
4904;DHT22;2467;48.142;11.616;2023-12-20T03:28:56;8.40;73.50
4904;DHT22;2467;48.142;11.616;2023-12-20T03:29:28;8.40;73.80
4904;DHT22;2467;48.142;11.616;2023-12-20T03:29:59;8.50;74.20
4904;DHT22;2467;48.142;11.616;2023-12-20T03:30:32;8.40;74.40
4904;DHT22;2467;48.142;11.616;2023-12-20T03:31:05;8.50;74.70
4904;DHT22;2467;48.142;11.616;2023-12-20T03:31:37;8.50;75.00
4904;DHT22;2467;48.142;11.616;2023-12-20T03:32:09;8.40;75.40
4904;DHT22;2467;48.142;11.616;2023-12-20T03:32:42;8.50;75.70
4904;DHT22;2467;48.142;11.616;2023-12-20T03:33:14;8.50;76.00
4904;DHT22;2467;48.142;11.616;2023-12-20T03:33:46;8.40;76.20